createdAt,value
2023-02-13T00:02:00.333Z,0.86
2023-02-13T00:04:27.279Z,0.79
2023-02-13T00:06:54.059Z,0.76
2023-02-13T00:09:26.782Z,0.78
2023-02-13T00:11:53.537Z,0.79
2023-02-13T00:14:20.513Z,0.87
2023-02-13T00:16:47.292Z,0.82
2023-02-13T00:19:14.041Z,0.86
2023-02-13T00:21:41.287Z,0.80
2023-02-13T00:24:08.158Z,0.80
2023-02-13T00:26:34.930Z,0.74
2023-02-13T00:29:01.834Z,0.68
2023-02-13T00:31:28.852Z,0.73
2023-02-13T00:33:55.849Z,0.76
2023-02-13T00:36:23.301Z,0.76
2023-02-13T00:38:51.172Z,0.72
2023-02-13T00:41:19.790Z,0.67
2023-02-13T00:43:47.307Z,0.67
2023-02-13T00:46:14.294Z,0.70
2023-02-13T00:48:41.368Z,0.77
2023-02-13T00:51:08.974Z,0.73
2023-02-13T00:53:36.132Z,0.72
2023-02-13T00:56:02.984Z,0.70
2023-02-13T00:58:29.833Z,0.78
2023-02-13T01:00:57.908Z,0.81
2023-02-13T01:03:24.965Z,0.81
2023-02-13T01:05:52.240Z,0.74
2023-02-13T01:08:24.132Z,0.69
2023-02-13T01:10:51.076Z,0.58
2023-02-13T01:13:21.041Z,0.60
2023-02-13T01:15:48.582Z,0.67
2023-02-13T01:18:16.739Z,0.70
2023-02-13T01:20:44.263Z,0.67
2023-02-13T01:23:11.800Z,0.70
2023-02-13T01:25:42.423Z,0.69
2023-02-13T01:28:09.381Z,0.69
2023-02-13T01:30:36.235Z,0.64
2023-02-13T01:33:03.186Z,0.69
2023-02-13T01:35:29.938Z,0.66
2023-02-13T01:37:56.779Z,0.71
2023-02-13T01:40:23.894Z,0.68
2023-02-13T01:42:50.677Z,0.65
2023-02-13T01:45:23.763Z,0.66
2023-02-13T01:47:56.573Z,0.78
2023-02-13T01:50:33.508Z,0.59
2023-02-13T01:53:23.365Z,0.66
2023-02-13T01:55:57.214Z,0.60
2023-02-13T01:58:26.094Z,0.62
2023-02-13T02:00:53.226Z,0.67
2023-02-13T02:03:40.371Z,0.69
2023-02-13T02:06:12.878Z,0.66
2023-02-13T02:08:39.799Z,0.63
2023-02-13T02:11:11.547Z,0.60
2023-02-13T02:13:38.454Z,0.68
2023-02-13T02:16:08.914Z,0.70
2023-02-13T02:18:35.716Z,0.76
2023-02-13T02:21:08.813Z,0.70
2023-02-13T02:24:01.874Z,0.74
2023-02-13T02:26:54.338Z,0.89
2023-02-13T02:29:40.055Z,0.79
2023-02-13T02:32:09.889Z,0.69
2023-02-13T02:34:56.685Z,0.58
2023-02-13T02:37:26.676Z,0.65
2023-02-13T02:39:57.555Z,0.57
2023-02-13T02:42:39.686Z,0.57
2023-02-13T02:45:14.050Z,0.60
2023-02-13T02:48:08.724Z,0.66
2023-02-13T02:50:41.622Z,0.42
2023-02-13T02:53:11.442Z,0.43
2023-02-13T02:55:45.947Z,0.31
2023-02-13T02:58:52.537Z,0.30
2023-02-13T03:01:41.566Z,0.31
2023-02-13T03:04:35.143Z,0.27
2023-02-13T03:07:05.416Z,0.25
2023-02-13T03:09:54.506Z,0.34
2023-02-13T03:12:41.911Z,0.37
2023-02-13T03:15:08.889Z,0.28
2023-02-13T03:17:54.567Z,0.35
2023-02-13T03:20:46.321Z,0.36
2023-02-13T03:23:25.546Z,0.39
2023-02-13T03:26:07.344Z,0.38
2023-02-13T03:28:59.199Z,0.31
2023-02-13T03:31:35.268Z,0.36
2023-02-13T03:34:08.238Z,0.29
2023-02-13T03:37:18.267Z,0.33
2023-02-13T03:39:45.049Z,0.30
2023-02-13T03:42:34.984Z,0.17
2023-02-13T03:45:27.520Z,0.13
2023-02-13T03:47:56.794Z,0.23
2023-02-13T03:50:24.634Z,0.15
2023-02-13T03:52:56.994Z,0.05
2023-02-13T03:55:49.081Z,-0.01
2023-02-13T03:58:37.094Z,0.07
2023-02-13T04:01:08.103Z,-0.05
2023-02-13T04:03:52.836Z,-0.17
2023-02-13T04:06:21.885Z,-0.22
2023-02-13T04:08:48.708Z,-0.22
2023-02-13T04:11:18.242Z,-0.23
2023-02-13T04:13:54.219Z,-0.27
2023-02-13T04:16:41.354Z,-0.22
2023-02-13T04:19:09.596Z,-0.25
2023-02-13T04:21:37.591Z,-0.30
2023-02-13T04:24:04.772Z,-0.38
2023-02-13T04:26:39.218Z,-0.40
2023-02-13T04:29:06.107Z,-0.39
2023-02-13T04:31:33.064Z,-0.33
2023-02-13T04:34:00.039Z,-0.35
2023-02-13T04:36:27.099Z,-0.33
2023-02-13T04:38:53.997Z,-0.37
2023-02-13T04:41:20.902Z,-0.39
2023-02-13T04:43:47.732Z,-0.39
2023-02-13T04:46:14.652Z,-0.45
2023-02-13T04:48:41.642Z,-0.50
2023-02-13T04:51:08.530Z,-0.48
2023-02-13T04:53:35.396Z,-0.46
2023-02-13T04:56:02.244Z,-0.47
2023-02-13T04:58:29.067Z,-0.49
2023-02-13T05:00:56.355Z,-0.45
2023-02-13T05:03:23.378Z,-0.52
2023-02-13T05:05:50.370Z,-0.77
2023-02-13T05:08:17.378Z,-0.67
2023-02-13T05:10:44.317Z,-0.63
2023-02-13T05:13:11.697Z,-0.70
2023-02-13T05:15:38.631Z,-0.74
2023-02-13T05:18:05.490Z,-0.76
2023-02-13T05:20:32.486Z,-0.77
2023-02-13T05:23:17.750Z,-0.75
2023-02-13T05:25:44.607Z,-0.74
2023-02-13T05:28:30.159Z,-0.77
2023-02-13T05:30:57.674Z,-0.85
2023-02-13T05:33:24.929Z,-0.89
2023-02-13T05:35:51.918Z,-0.86
2023-02-13T05:38:18.778Z,-0.91
2023-02-13T05:40:45.800Z,-0.93
2023-02-13T05:43:12.634Z,-0.94
2023-02-13T05:45:39.594Z,-0.92
2023-02-13T05:48:06.446Z,-0.97
2023-02-13T05:50:33.346Z,-0.93
2023-02-13T05:53:00.236Z,-1.15
2023-02-13T05:55:27.189Z,-1.09
2023-02-13T05:57:57.928Z,-1.13
2023-02-13T06:00:25.347Z,-1.18
2023-02-13T06:02:52.323Z,-1.17
2023-02-13T06:05:19.132Z,-1.15
2023-02-13T06:07:46.049Z,-1.18
2023-02-13T06:10:12.860Z,-1.28
2023-02-13T06:12:39.843Z,-1.26
2023-02-13T06:15:07.024Z,-1.35
2023-02-13T06:17:33.850Z,-1.31
2023-02-13T06:20:00.644Z,-1.35
2023-02-13T06:22:27.522Z,-1.29
2023-02-13T06:24:54.442Z,-1.27
2023-02-13T06:27:21.328Z,-1.24
2023-02-13T06:29:48.386Z,-1.17
2023-02-13T06:32:15.404Z,-1.19
2023-02-13T06:34:42.114Z,-1.24
2023-02-13T06:37:08.942Z,-1.33
2023-02-13T06:39:35.842Z,-1.19
2023-02-13T06:42:02.764Z,-1.28
2023-02-13T06:44:29.572Z,-1.24
2023-02-13T06:46:56.573Z,-1.11
2023-02-13T06:49:23.485Z,-1.09
2023-02-13T06:51:50.259Z,-1.19
2023-02-13T06:54:17.134Z,-1.20
2023-02-13T06:56:43.894Z,-1.04
2023-02-13T06:59:10.785Z,-1.04
2023-02-13T07:01:37.548Z,-1.07
2023-02-13T07:04:04.500Z,-1.02
2023-02-13T07:06:32.467Z,-1.04
2023-02-13T07:09:01.357Z,-0.88
2023-02-13T07:11:28.250Z,-0.91
2023-02-13T07:13:55.026Z,-0.94
2023-02-13T07:16:21.935Z,-0.93
2023-02-13T07:18:48.736Z,-0.90
2023-02-13T07:21:15.611Z,-0.85
2023-02-13T07:23:42.500Z,-0.82
2023-02-13T07:26:11.242Z,-0.75
2023-02-13T07:28:38.092Z,-0.67
2023-02-13T07:31:06.282Z,-0.59
2023-02-13T07:33:33.602Z,-0.56
2023-02-13T07:36:02.998Z,-0.59
2023-02-13T07:38:30.677Z,-0.48
2023-02-13T07:41:04.405Z,-0.44
2023-02-13T07:43:31.267Z,-0.25
2023-02-13T07:45:59.176Z,-0.23
2023-02-13T07:48:29.428Z,-0.02
2023-02-13T07:51:00.448Z,0.12
2023-02-13T07:53:27.318Z,0.34
2023-02-13T07:55:54.077Z,0.48
2023-02-13T07:58:20.967Z,0.54
2023-02-13T08:00:48.072Z,0.55
2023-02-13T08:03:15.198Z,0.65
2023-02-13T08:05:47.777Z,0.82
2023-02-13T08:08:14.614Z,0.88
2023-02-13T08:11:00.254Z,1.05
2023-02-13T08:13:27.393Z,1.07
2023-02-13T08:15:54.130Z,1.26
2023-02-13T08:18:20.963Z,1.42
2023-02-13T08:20:51.003Z,1.53
2023-02-13T08:23:17.954Z,1.67
2023-02-13T08:25:44.847Z,1.73
2023-02-13T08:28:11.781Z,1.81
2023-02-13T08:30:38.635Z,1.96
2023-02-13T08:33:05.600Z,2.03
2023-02-13T08:35:32.472Z,2.16
2023-02-13T08:38:03.554Z,2.27
2023-02-13T08:40:30.856Z,2.27
2023-02-13T08:43:02.043Z,2.43
2023-02-13T08:45:29.366Z,2.61
2023-02-13T08:47:57.152Z,2.71
2023-02-13T08:50:24.073Z,2.79
2023-02-13T08:52:50.988Z,2.96
2023-02-13T08:55:17.880Z,3.05
2023-02-13T08:57:44.777Z,3.15
2023-02-13T09:00:11.782Z,3.15
2023-02-13T09:02:38.704Z,3.19
2023-02-13T09:05:05.677Z,3.28
2023-02-13T09:07:32.665Z,3.50
2023-02-13T09:09:59.445Z,3.53
2023-02-13T09:12:26.269Z,3.52
2023-02-13T09:14:53.262Z,3.60
2023-02-13T09:17:20.246Z,3.65
2023-02-13T09:19:47.461Z,3.75
2023-02-13T09:22:17.243Z,3.83
2023-02-13T09:24:44.171Z,3.93
2023-02-13T09:27:11.048Z,4.02
2023-02-13T09:29:37.962Z,4.08
2023-02-13T09:32:05.248Z,4.13
2023-02-13T09:34:32.113Z,4.24
2023-02-13T09:36:58.957Z,4.32
2023-02-13T09:39:25.999Z,4.33
2023-02-13T09:41:53.914Z,4.35
2023-02-13T09:44:38.886Z,4.32
2023-02-13T09:47:14.759Z,4.33
2023-02-13T09:49:44.372Z,4.51
2023-02-13T09:52:11.368Z,4.57
2023-02-13T09:54:38.459Z,4.59
2023-02-13T09:57:12.787Z,4.59
2023-02-13T09:59:51.722Z,4.69
2023-02-13T10:02:41.740Z,4.86
2023-02-13T10:05:08.603Z,4.92
2023-02-13T10:07:49.982Z,5.01
2023-02-13T10:10:28.552Z,5.07
2023-02-13T10:12:58.446Z,4.91
2023-02-13T10:15:40.427Z,5.05
2023-02-13T10:18:12.445Z,5.12
2023-02-13T10:20:46.046Z,5.26
2023-02-13T10:23:18.937Z,5.28
2023-02-13T10:26:02.475Z,5.33
2023-02-13T10:28:29.412Z,5.42
2023-02-13T10:30:58.823Z,5.54
2023-02-13T10:33:25.799Z,5.56
2023-02-13T10:35:58.751Z,5.56
2023-02-13T10:38:27.954Z,5.51
2023-02-13T10:41:04.491Z,5.48
2023-02-13T10:43:39.053Z,5.43
2023-02-13T10:46:17.030Z,5.33
2023-02-13T10:48:50.070Z,5.30
2023-02-13T10:51:27.586Z,5.06
2023-02-13T10:54:10.641Z,5.22
2023-02-13T10:56:40.502Z,5.31
2023-02-13T10:59:07.344Z,5.21
2023-02-13T11:01:37.144Z,5.34
2023-02-13T11:04:08.516Z,5.45
2023-02-13T11:06:42.568Z,5.33
2023-02-13T11:09:10.012Z,5.45
2023-02-13T11:11:41.150Z,5.51
2023-02-13T11:14:07.917Z,5.38
2023-02-13T11:16:43.104Z,5.42
2023-02-13T11:19:21.406Z,5.50
2023-02-13T11:21:50.292Z,5.56
2023-02-13T11:24:22.785Z,5.64
2023-02-13T11:27:09.587Z,5.77
2023-02-13T11:29:37.730Z,5.78
2023-02-13T11:32:04.638Z,5.84
2023-02-13T11:34:32.588Z,5.91
2023-02-13T11:37:19.593Z,5.94
2023-02-13T11:39:50.160Z,6.01
2023-02-13T11:42:35.725Z,6.05
2023-02-13T11:45:07.255Z,6.08
2023-02-13T11:47:39.391Z,6.10
2023-02-13T11:50:19.447Z,6.21
2023-02-13T11:52:53.924Z,6.22
2023-02-13T11:55:38.516Z,6.20
2023-02-13T11:58:23.945Z,6.22
2023-02-13T12:00:51.187Z,6.21
2023-02-13T12:03:21.344Z,6.10
2023-02-13T12:06:06.176Z,6.17
2023-02-13T12:08:34.569Z,6.30
2023-02-13T12:11:02.772Z,6.31
2023-02-13T12:13:35.775Z,6.30
2023-02-13T12:16:05.717Z,6.38
2023-02-13T12:18:33.727Z,6.48
2023-02-13T12:21:01.425Z,6.49
2023-02-13T12:23:42.306Z,6.44
2023-02-13T12:26:09.159Z,6.43
2023-02-13T12:31:16.930Z,6.46
2023-02-13T12:34:04.075Z,6.56
2023-02-13T12:36:40.216Z,6.65
2023-02-13T12:39:31.802Z,6.59
2023-02-13T12:42:17.237Z,6.67
2023-02-13T12:44:48.741Z,6.73
2023-02-13T12:47:22.212Z,6.69
2023-02-13T12:49:49.020Z,6.73
2023-02-13T12:52:15.865Z,6.76
2023-02-13T12:55:02.860Z,6.71
2023-02-13T12:57:48.588Z,6.78
2023-02-13T13:00:30.696Z,6.82
2023-02-13T13:03:16.084Z,6.80
2023-02-13T13:05:58.749Z,6.75
2023-02-13T13:08:48.641Z,6.83
2023-02-13T13:11:22.889Z,6.87
2023-02-13T13:14:02.602Z,6.91
2023-02-13T13:16:52.278Z,6.92
2023-02-13T13:19:19.043Z,6.99
2023-02-13T13:21:55.604Z,7.09
2023-02-13T13:24:41.023Z,7.08
2023-02-13T13:27:40.117Z,7.09
2023-02-13T13:30:27.556Z,7.16
2023-02-13T13:33:08.685Z,7.08
2023-02-13T13:35:37.033Z,7.22
2023-02-13T13:38:17.531Z,7.28
2023-02-13T13:41:00.537Z,7.29
2023-02-13T13:43:27.729Z,7.30
2023-02-13T13:46:13.550Z,7.30
2023-02-13T13:49:07.054Z,7.33
2023-02-13T13:51:34.590Z,7.32
2023-02-13T13:54:01.726Z,7.34
2023-02-13T13:56:48.824Z,7.42
2023-02-13T13:59:20.208Z,7.27
2023-02-13T14:01:47.179Z,7.35
2023-02-13T14:04:32.193Z,7.33
2023-02-13T14:06:58.961Z,7.29
2023-02-13T14:09:28.931Z,7.29
2023-02-13T14:11:56.916Z,7.22
2023-02-13T14:14:28.089Z,7.14
2023-02-13T14:16:56.116Z,7.04
2023-02-13T14:19:26.352Z,6.92
2023-02-13T14:21:53.937Z,6.88
2023-02-13T14:24:22.618Z,6.81
2023-02-13T14:26:57.882Z,6.73
2023-02-13T14:29:33.223Z,6.63
2023-02-13T14:32:16.457Z,6.59
2023-02-13T14:34:51.377Z,6.46
2023-02-13T14:37:23.265Z,6.35
2023-02-13T14:40:09.233Z,6.24
2023-02-13T14:42:36.359Z,6.13
2023-02-13T14:45:04.940Z,6.05
2023-02-13T14:47:31.858Z,5.99
2023-02-13T14:50:00.124Z,5.91
2023-02-13T14:52:29.254Z,5.90
2023-02-13T14:55:01.248Z,5.83
2023-02-13T14:57:49.568Z,5.63
2023-02-13T15:00:19.199Z,5.41
2023-02-13T15:02:48.211Z,5.40
2023-02-13T15:05:19.992Z,5.30
2023-02-13T15:07:49.256Z,5.25
2023-02-13T15:10:34.604Z,5.18
2023-02-13T15:13:02.204Z,5.03
2023-02-13T15:15:29.001Z,5.06
2023-02-13T15:18:04.885Z,4.90
2023-02-13T15:20:41.047Z,4.66
2023-02-13T15:23:09.701Z,4.58
2023-02-13T15:25:37.978Z,4.54
2023-02-13T15:28:08.870Z,4.38
2023-02-13T15:30:37.199Z,4.29
2023-02-13T15:33:15.777Z,4.21
2023-02-13T15:35:42.781Z,4.15
2023-02-13T15:38:20.082Z,4.13
2023-02-13T15:40:47.668Z,4.10
2023-02-13T15:43:28.046Z,4.01
2023-02-13T15:45:58.334Z,3.92
2023-02-13T15:48:25.217Z,3.86
2023-02-13T15:50:52.206Z,3.85
2023-02-13T15:53:19.219Z,3.77
2023-02-13T15:55:56.386Z,3.67
2023-02-13T15:58:26.299Z,3.70
2023-02-13T16:00:53.232Z,3.63
2023-02-13T16:03:20.714Z,3.58
2023-02-13T16:05:48.055Z,3.54
2023-02-13T16:08:30.261Z,3.47
2023-02-13T16:11:16.017Z,3.43
2023-02-13T16:14:21.806Z,3.43
2023-02-13T16:16:51.060Z,3.35
2023-02-13T16:19:25.594Z,3.33
2023-02-13T16:21:53.473Z,3.23
2023-02-13T16:24:21.415Z,3.17
2023-02-13T16:26:49.046Z,3.08
2023-02-13T16:29:24.221Z,3.05
2023-02-13T16:31:52.295Z,3.02
2023-02-13T16:34:29.596Z,2.77
2023-02-13T16:36:56.953Z,2.85
2023-02-13T16:39:29.057Z,2.80
2023-02-13T16:41:56.610Z,2.75
2023-02-13T16:44:23.535Z,2.65
2023-02-13T16:47:10.609Z,2.64
2023-02-13T16:49:37.853Z,2.31
2023-02-13T16:52:30.727Z,2.41
2023-02-13T16:54:59.546Z,2.44
2023-02-13T16:57:30.691Z,2.29
2023-02-13T16:59:57.531Z,1.97
2023-02-13T17:02:28.650Z,2.05
2023-02-13T17:04:55.575Z,2.09
2023-02-13T17:07:23.753Z,1.82
2023-02-13T17:09:54.856Z,1.93
2023-02-13T17:12:21.983Z,1.89
2023-02-13T17:14:48.806Z,1.89
2023-02-13T17:17:19.017Z,1.88
2023-02-13T17:19:46.131Z,1.81
2023-02-13T17:22:26.269Z,1.78
2023-02-13T17:24:53.352Z,1.81
2023-02-13T17:27:22.534Z,1.81
2023-02-13T17:29:49.668Z,1.73
2023-02-13T17:32:19.231Z,1.69
2023-02-13T17:34:49.219Z,1.66
2023-02-13T17:37:17.734Z,1.60
2023-02-13T17:39:45.520Z,1.60
2023-02-13T17:42:17.510Z,1.60
2023-02-13T17:44:44.494Z,1.50
2023-02-13T17:47:12.285Z,1.26
2023-02-13T17:49:39.202Z,1.35
2023-02-13T17:52:06.274Z,1.28
2023-02-13T17:54:36.197Z,1.24
2023-02-13T17:57:03.151Z,1.25
2023-02-13T17:59:29.983Z,1.19
2023-02-13T18:01:56.983Z,1.26
2023-02-13T18:04:23.868Z,1.19
2023-02-13T18:06:54.194Z,1.12
2023-02-13T18:09:22.017Z,1.17
2023-02-13T18:12:04.593Z,1.19
2023-02-13T18:14:32.915Z,1.13
2023-02-13T18:16:59.719Z,1.15
2023-02-13T18:19:27.401Z,1.02
2023-02-13T18:21:54.325Z,1.03
2023-02-13T18:24:21.273Z,0.86
2023-02-13T18:26:48.204Z,0.94
2023-02-13T18:29:15.058Z,1.00
2023-02-13T18:31:42.001Z,1.03
2023-02-13T18:34:08.969Z,0.94
2023-02-13T18:36:35.788Z,0.92
2023-02-13T18:39:02.848Z,0.80
2023-02-13T18:41:29.847Z,0.80
2023-02-13T18:43:57.976Z,0.78
2023-02-13T18:46:24.906Z,0.81
2023-02-13T18:48:51.792Z,0.77
2023-02-13T18:51:18.910Z,0.74
2023-02-13T18:53:45.809Z,0.73
2023-02-13T18:56:13.102Z,0.73
2023-02-13T18:58:40.063Z,0.72
2023-02-13T19:01:10.902Z,0.70
2023-02-13T19:03:38.390Z,0.66
2023-02-13T19:06:07.950Z,0.66
2023-02-13T19:08:36.082Z,0.61
2023-02-13T19:11:03.801Z,0.61
2023-02-13T19:13:32.119Z,0.55
2023-02-13T19:16:09.739Z,0.52
2023-02-13T19:18:37.328Z,0.46
2023-02-13T19:21:04.843Z,0.52
2023-02-13T19:23:32.006Z,0.35
2023-02-13T19:25:58.907Z,0.32
2023-02-13T19:28:25.781Z,0.36
2023-02-13T19:30:52.778Z,0.27
2023-02-13T19:33:19.708Z,0.26
2023-02-13T19:35:56.345Z,0.22
2023-02-13T19:38:23.208Z,0.21
2023-02-13T19:40:49.947Z,0.19
2023-02-13T19:43:16.786Z,0.17
2023-02-13T19:45:44.800Z,0.16
2023-02-13T19:48:12.086Z,0.10
2023-02-13T19:50:39.473Z,0.11
2023-02-13T19:53:07.816Z,0.11
2023-02-13T19:55:34.806Z,-0.05
2023-02-13T19:58:01.578Z,-0.11
2023-02-13T20:00:28.365Z,-0.06
2023-02-13T20:03:00.815Z,-0.15
2023-02-13T20:05:27.619Z,-0.12
2023-02-13T20:07:54.412Z,-0.06
2023-02-13T20:10:21.270Z,-0.10
2023-02-13T20:12:53.828Z,-0.11
2023-02-13T20:15:20.925Z,-0.20
2023-02-13T20:17:47.761Z,-0.17
2023-02-13T20:20:14.733Z,-0.25
2023-02-13T20:22:41.555Z,-0.32
2023-02-13T20:25:08.477Z,-0.37
2023-02-13T20:30:07.290Z,-0.50
2023-02-13T20:32:34.455Z,-0.47
2023-02-13T20:35:01.284Z,-0.43
2023-02-13T20:37:28.162Z,-0.44
2023-02-13T20:39:55.010Z,-0.46
2023-02-13T20:42:21.874Z,-0.41
2023-02-13T20:44:48.839Z,-0.47
2023-02-13T20:47:15.788Z,-0.47
2023-02-13T20:49:42.530Z,-0.52
2023-02-13T20:52:09.390Z,-0.54
2023-02-13T20:54:36.994Z,-0.56
2023-02-13T20:57:04.064Z,-0.56
2023-02-13T20:59:30.984Z,-0.57
2023-02-13T21:01:57.734Z,-0.57
2023-02-13T21:04:24.673Z,-0.64
2023-02-13T21:06:51.535Z,-0.59
2023-02-13T21:09:18.461Z,-0.61
2023-02-13T21:11:45.464Z,-0.60
2023-02-13T21:14:12.865Z,-0.60
2023-02-13T21:16:41.331Z,-0.61
2023-02-13T21:19:11.310Z,-0.64
2023-02-13T21:21:38.514Z,-0.63
2023-02-13T21:24:08.201Z,-0.64
2023-02-13T21:26:35.615Z,-0.60
2023-02-13T21:29:02.412Z,-0.61
2023-02-13T21:31:30.978Z,-0.64
2023-02-13T21:34:06.441Z,-0.65
2023-02-13T21:36:34.146Z,-0.62
2023-02-13T21:39:01.387Z,-0.63
2023-02-13T21:41:28.444Z,-0.62
2023-02-13T21:43:55.279Z,-0.62
2023-02-13T21:46:30.840Z,-0.64
2023-02-13T21:49:02.023Z,-0.63
2023-02-13T21:51:30.256Z,-0.65
2023-02-13T21:53:57.477Z,-0.68
2023-02-13T21:56:26.506Z,-0.67
2023-02-13T21:58:53.474Z,-0.68
2023-02-13T22:01:26.991Z,-0.69
2023-02-13T22:04:00.323Z,-0.67
2023-02-13T22:06:28.504Z,-0.72
2023-02-13T22:08:59.682Z,-0.69
2023-02-13T22:11:26.932Z,-0.73
2023-02-13T22:13:57.669Z,-0.73
2023-02-13T22:16:24.797Z,-0.75
2023-02-13T22:18:51.880Z,-0.79
2023-02-13T22:21:20.057Z,-0.76
2023-02-13T22:23:47.737Z,-0.75
2023-02-13T22:26:45.384Z,-0.74
2023-02-13T22:29:13.596Z,-0.76
2023-02-13T22:31:40.834Z,-0.77
2023-02-13T22:34:12.046Z,-0.76
2023-02-13T22:36:39.159Z,-0.80
2023-02-13T22:39:06.631Z,-0.82
2023-02-13T22:41:33.652Z,-0.80
2023-02-13T22:44:00.534Z,-0.81
2023-02-13T22:46:31.486Z,-0.80
2023-02-13T22:48:59.515Z,-0.83
2023-02-13T22:51:28.628Z,-0.83
2023-02-13T22:53:56.383Z,-0.88
2023-02-13T22:56:24.509Z,-0.87
2023-02-13T22:58:51.353Z,-0.87
2023-02-13T23:01:19.409Z,-0.88
2023-02-13T23:03:46.418Z,-0.89
2023-02-13T23:06:14.156Z,-0.88
2023-02-13T23:08:41.279Z,-0.89
2023-02-13T23:11:27.824Z,-0.91
2023-02-13T23:13:54.724Z,-0.94
2023-02-13T23:19:17.453Z,-0.96
2023-02-13T23:21:44.456Z,-0.97
2023-02-13T23:24:11.396Z,-0.98
2023-02-13T23:26:38.825Z,-0.97
2023-02-13T23:29:05.812Z,-1.03
2023-02-13T23:31:32.687Z,-1.04
2023-02-13T23:33:59.492Z,-1.05
2023-02-13T23:36:26.409Z,-1.06
2023-02-13T23:38:53.273Z,-1.07
2023-02-13T23:41:19.976Z,-1.05
2023-02-13T23:43:46.832Z,-1.07
2023-02-13T23:46:13.793Z,-1.07
2023-02-13T23:48:40.611Z,-1.14
2023-02-13T23:51:07.507Z,-1.15
2023-02-13T23:53:37.647Z,-1.14
2023-02-13T23:56:05.019Z,-1.21
2023-02-13T23:58:31.824Z,-1.16
